createdAt,value
2019-01-17T00:02:22.639Z,2.48
2019-01-17T00:05:15.675Z,2.48
2019-01-17T00:08:09.155Z,2.47
2019-01-17T00:11:08.346Z,2.47
2019-01-17T00:14:10.492Z,2.49
2019-01-17T00:16:59.389Z,2.47
2019-01-17T00:19:58.629Z,2.45
2019-01-17T00:22:47.445Z,2.46
2019-01-17T00:25:37.993Z,2.44
2019-01-17T00:28:28.096Z,2.41
2019-01-17T00:31:17.464Z,2.40
2019-01-17T00:34:22.814Z,2.36
2019-01-17T00:37:11.765Z,2.34
2019-01-17T00:40:03.475Z,2.33
2019-01-17T00:43:05.885Z,2.27
2019-01-17T00:46:02.034Z,2.27
2019-01-17T00:48:43.883Z,2.27
2019-01-17T00:51:34.172Z,2.27
2019-01-17T00:54:25.367Z,2.27
2019-01-17T00:57:09.036Z,2.22
2019-01-17T01:00:02.247Z,2.21
2019-01-17T01:02:44.583Z,2.16
2019-01-17T01:05:33.466Z,2.16
2019-01-17T01:08:29.894Z,2.15
2019-01-17T01:11:13.340Z,2.12
2019-01-17T01:14:02.680Z,2.14
2019-01-17T01:17:20.360Z,2.15
2019-01-17T01:20:18.119Z,2.13
2019-01-17T01:23:10.891Z,2.14
2019-01-17T01:26:01.265Z,2.12
2019-01-17T01:28:41.548Z,2.13
2019-01-17T01:31:29.392Z,2.12
2019-01-17T01:34:18.042Z,2.15
2019-01-17T01:37:06.720Z,2.15
2019-01-17T01:39:58.648Z,2.15
2019-01-17T01:42:52.728Z,2.16
2019-01-17T01:46:04.050Z,2.16
2019-01-17T01:48:53.000Z,2.20
2019-01-17T01:51:46.125Z,2.18
2019-01-17T01:54:22.024Z,2.17
2019-01-17T01:56:50.281Z,2.18
2019-01-17T01:59:21.643Z,2.17
2019-01-17T02:01:55.180Z,2.17
2019-01-17T02:04:26.410Z,2.17
2019-01-17T02:06:57.690Z,2.18
2019-01-17T02:09:28.832Z,2.17
2019-01-17T02:12:00.094Z,2.21
2019-01-17T02:14:31.805Z,2.19
2019-01-17T02:17:03.818Z,2.18
2019-01-17T02:19:35.115Z,2.22
2019-01-17T02:22:06.583Z,2.24
2019-01-17T02:24:37.927Z,2.23
2019-01-17T02:27:09.306Z,2.23
2019-01-17T02:29:42.307Z,2.23
2019-01-17T02:32:13.647Z,2.22
2019-01-17T02:34:45.101Z,2.20
2019-01-17T02:37:16.470Z,2.19
2019-01-17T02:39:47.599Z,2.24
2019-01-17T02:42:19.728Z,2.24
2019-01-17T02:44:50.955Z,2.27
2019-01-17T02:47:22.128Z,2.28
2019-01-17T02:49:53.507Z,2.31
2019-01-17T02:52:24.793Z,2.32
2019-01-17T02:54:56.498Z,2.34
2019-01-17T02:57:29.892Z,2.26
2019-01-17T03:00:01.116Z,2.28
2019-01-17T03:02:33.357Z,2.31
2019-01-17T03:05:04.815Z,2.37
2019-01-17T03:07:36.231Z,2.44
2019-01-17T03:10:11.061Z,2.48
2019-01-17T03:12:42.254Z,2.55
2019-01-17T03:15:13.649Z,2.54
2019-01-17T03:17:44.872Z,2.54
2019-01-17T03:20:16.323Z,2.55
2019-01-17T03:22:47.554Z,2.59
2019-01-17T03:25:20.056Z,2.62
2019-01-17T03:27:52.026Z,2.63
2019-01-17T03:30:23.269Z,2.57
2019-01-17T03:32:57.590Z,2.49
2019-01-17T03:35:28.775Z,2.44
2019-01-17T03:38:01.200Z,2.48
2019-01-17T03:40:32.393Z,2.52
2019-01-17T03:43:03.650Z,2.60
2019-01-17T03:45:37.115Z,2.63
2019-01-17T03:48:08.536Z,2.67
2019-01-17T03:50:39.960Z,2.69
2019-01-17T03:53:11.230Z,2.69
2019-01-17T03:55:42.620Z,2.72
2019-01-17T03:58:14.014Z,2.72
2019-01-17T04:00:45.483Z,2.76
2019-01-17T04:03:16.663Z,2.79
2019-01-17T04:05:48.101Z,2.78
2019-01-17T04:08:19.287Z,2.74
2019-01-17T04:10:53.243Z,2.67
2019-01-17T04:13:24.272Z,2.55
2019-01-17T04:15:55.950Z,2.52
2019-01-17T04:18:27.044Z,2.55
2019-01-17T04:20:59.869Z,2.61
2019-01-17T04:23:31.319Z,2.62
2019-01-17T04:26:02.659Z,2.70
2019-01-17T04:28:33.995Z,2.69
2019-01-17T04:31:06.432Z,2.69
2019-01-17T04:33:38.506Z,2.72
2019-01-17T04:36:09.732Z,2.71
2019-01-17T04:38:41.163Z,2.69
2019-01-17T04:41:13.197Z,2.67
2019-01-17T04:43:44.352Z,2.72
2019-01-17T04:46:15.648Z,2.74
2019-01-17T04:48:46.943Z,2.70
2019-01-17T04:51:20.423Z,2.75
2019-01-17T04:53:52.131Z,2.93
2019-01-17T04:56:23.402Z,3.07
2019-01-17T04:58:54.793Z,3.29
2019-01-17T05:01:25.950Z,3.37
2019-01-17T05:03:57.535Z,3.39
2019-01-17T05:06:28.948Z,3.36
2019-01-17T05:09:00.339Z,3.37
2019-01-17T05:11:32.733Z,3.31
2019-01-17T05:14:04.090Z,3.29
2019-01-17T05:16:35.194Z,3.26
2019-01-17T05:19:06.577Z,3.26
2019-01-17T05:21:38.189Z,3.33
2019-01-17T05:24:09.263Z,3.30
2019-01-17T05:26:40.663Z,3.24
2019-01-17T05:29:12.030Z,3.03
2019-01-17T05:31:43.238Z,3.00
2019-01-17T05:34:14.515Z,3.10
2019-01-17T05:36:45.848Z,3.16
2019-01-17T05:39:18.304Z,3.21
2019-01-17T05:41:49.731Z,3.22
2019-01-17T05:44:20.973Z,3.24
2019-01-17T05:46:53.053Z,3.27
2019-01-17T05:49:24.209Z,3.29
2019-01-17T05:51:58.750Z,3.10
2019-01-17T05:54:30.001Z,3.10
2019-01-17T05:57:01.094Z,3.23
2019-01-17T05:59:32.319Z,3.34
2019-01-17T06:02:03.554Z,3.36
2019-01-17T06:04:36.333Z,3.36
2019-01-17T06:07:08.159Z,3.37
2019-01-17T06:09:39.395Z,3.37
2019-01-17T06:12:10.688Z,3.35
2019-01-17T06:14:42.159Z,3.36
2019-01-17T06:17:13.534Z,3.39
2019-01-17T06:19:44.708Z,3.48
2019-01-17T06:22:15.913Z,3.52
2019-01-17T06:24:47.048Z,3.55
2019-01-17T06:27:18.233Z,3.59
2019-01-17T06:29:51.906Z,3.66
2019-01-17T06:32:23.400Z,3.70
2019-01-17T06:34:55.058Z,3.71
2019-01-17T06:37:26.346Z,3.77
2019-01-17T06:39:57.389Z,3.75
2019-01-17T06:42:28.787Z,3.75
2019-01-17T06:45:01.697Z,3.77
2019-01-17T06:47:33.387Z,3.77
2019-01-17T06:50:05.847Z,3.77
2019-01-17T06:52:37.460Z,3.76
2019-01-17T06:55:08.870Z,3.73
2019-01-17T06:57:39.896Z,3.72
2019-01-17T07:00:13.265Z,3.72
2019-01-17T07:02:45.905Z,3.74
2019-01-17T07:05:17.365Z,3.78
2019-01-17T07:07:48.732Z,3.81
2019-01-17T07:10:19.766Z,3.85
2019-01-17T07:12:50.831Z,3.90
2019-01-17T07:15:22.093Z,3.92
2019-01-17T07:17:53.262Z,3.98
2019-01-17T07:20:24.482Z,4.00
2019-01-17T07:22:55.621Z,4.04
2019-01-17T07:25:26.842Z,4.08
2019-01-17T07:27:58.065Z,4.08
2019-01-17T07:30:29.173Z,4.11
2019-01-17T07:33:00.322Z,4.13
2019-01-17T07:35:31.468Z,4.11
2019-01-17T07:38:02.526Z,4.12
2019-01-17T07:40:33.490Z,4.08
2019-01-17T07:43:04.767Z,4.15
2019-01-17T07:45:35.977Z,4.20
2019-01-17T07:48:07.025Z,4.25
2019-01-17T07:50:38.173Z,4.28
2019-01-17T07:53:09.470Z,4.32
2019-01-17T07:55:40.844Z,4.35
2019-01-17T07:58:11.854Z,4.34
2019-01-17T08:00:43.266Z,4.33
2019-01-17T08:03:14.447Z,4.12
2019-01-17T08:05:45.655Z,4.07
2019-01-17T08:08:17.526Z,4.05
2019-01-17T08:10:49.582Z,4.10
2019-01-17T08:13:20.806Z,4.03
2019-01-17T08:15:51.801Z,4.18
2019-01-17T08:18:23.083Z,4.22
2019-01-17T08:20:54.061Z,4.14
2019-01-17T08:23:26.377Z,4.16
2019-01-17T08:25:57.614Z,4.18
2019-01-17T08:28:28.881Z,4.12
2019-01-17T08:31:00.150Z,4.18
2019-01-17T08:33:31.584Z,4.28
2019-01-17T08:36:02.742Z,4.37
2019-01-17T08:38:34.043Z,4.55
2019-01-17T08:41:05.916Z,4.71
2019-01-17T08:43:37.008Z,4.86
2019-01-17T08:46:07.963Z,4.96
2019-01-17T08:48:39.367Z,5.08
2019-01-17T08:51:10.710Z,5.19
2019-01-17T08:53:42.063Z,5.33
2019-01-17T08:56:13.270Z,5.42
2019-01-17T08:58:45.080Z,5.48
2019-01-17T09:01:16.748Z,5.59
2019-01-17T09:03:48.470Z,5.68
2019-01-17T09:06:19.837Z,5.77
2019-01-17T09:08:51.278Z,5.85
2019-01-17T09:11:22.787Z,5.91
2019-01-17T09:13:54.000Z,5.96
2019-01-17T09:16:25.385Z,6.02
2019-01-17T09:18:56.857Z,6.11
2019-01-17T09:21:28.064Z,6.21
2019-01-17T09:23:59.438Z,6.25
2019-01-17T09:26:30.677Z,6.35
2019-01-17T09:29:01.651Z,6.43
2019-01-17T09:31:32.866Z,6.50
2019-01-17T09:34:04.112Z,6.46
2019-01-17T09:36:35.124Z,6.52
2019-01-17T09:39:08.956Z,6.51
2019-01-17T09:41:40.163Z,6.60
2019-01-17T09:44:11.606Z,6.58
2019-01-17T09:46:42.977Z,6.64
2019-01-17T09:49:14.088Z,6.61
2019-01-17T09:51:45.280Z,6.66
2019-01-17T09:54:16.231Z,6.72
2019-01-17T09:56:47.462Z,6.83
2019-01-17T09:59:20.046Z,6.86
2019-01-17T10:01:51.162Z,6.93
2019-01-17T10:04:26.583Z,6.98
2019-01-17T10:06:55.185Z,6.96
2019-01-17T10:09:26.407Z,7.00
2019-01-17T10:11:57.563Z,7.01
2019-01-17T10:14:28.820Z,7.11
2019-01-17T10:17:41.152Z,7.15
2019-01-17T10:20:40.324Z,7.14
2019-01-17T10:24:14.449Z,7.27
2019-01-17T10:27:13.003Z,7.25
2019-01-17T10:29:50.806Z,7.22
2019-01-17T10:33:08.824Z,7.29
2019-01-17T10:36:07.963Z,7.32
2019-01-17T10:38:58.308Z,7.27
2019-01-17T10:41:46.080Z,7.25
2019-01-17T10:44:49.499Z,7.30
2019-01-17T10:48:00.419Z,7.19
2019-01-17T10:51:01.861Z,7.07
2019-01-17T10:53:55.612Z,7.05
2019-01-17T10:57:07.264Z,6.78
2019-01-17T11:00:06.557Z,6.66
2019-01-17T11:03:17.513Z,6.54
2019-01-17T11:06:24.301Z,6.51
2019-01-17T11:09:48.464Z,6.48
2019-01-17T11:12:36.001Z,6.58
2019-01-17T11:15:25.690Z,6.49
2019-01-17T11:18:24.688Z,6.56
2019-01-17T11:21:51.689Z,6.49
2019-01-17T11:25:00.569Z,6.48
2019-01-17T11:28:14.831Z,6.47
2019-01-17T11:31:16.410Z,6.45
2019-01-17T11:34:14.349Z,6.44
2019-01-17T11:37:24.780Z,6.40
2019-01-17T11:40:35.754Z,6.38
2019-01-17T11:43:42.531Z,6.32
2019-01-17T11:46:45.727Z,6.27
2019-01-17T11:50:10.966Z,6.25
2019-01-17T11:53:17.498Z,6.27
2019-01-17T11:56:20.470Z,6.23
2019-01-17T11:59:37.444Z,6.19
2019-01-17T12:03:07.637Z,6.27
2019-01-17T12:05:38.753Z,6.37
2019-01-17T12:08:10.005Z,6.43
2019-01-17T12:10:41.479Z,6.74
2019-01-17T12:13:17.408Z,7.25
2019-01-17T12:15:47.632Z,8.25
2019-01-17T12:18:18.892Z,8.41
2019-01-17T12:20:53.696Z,8.26
2019-01-17T12:23:24.805Z,8.39
2019-01-17T12:25:56.129Z,8.41
2019-01-17T12:28:27.183Z,8.57
2019-01-17T12:30:58.507Z,8.99
2019-01-17T12:33:29.755Z,9.72
2019-01-17T12:36:01.263Z,9.66
2019-01-17T12:38:32.972Z,9.49
2019-01-17T12:41:04.762Z,9.24
2019-01-17T12:43:36.898Z,8.90
2019-01-17T12:46:08.325Z,8.61
2019-01-17T12:48:39.398Z,8.12
2019-01-17T12:51:10.895Z,8.12
2019-01-17T12:53:42.154Z,7.97
2019-01-17T12:56:13.217Z,8.11
2019-01-17T12:58:44.892Z,8.22
2019-01-17T13:01:16.230Z,8.40
2019-01-17T13:03:47.545Z,8.95
2019-01-17T13:06:18.794Z,9.25
2019-01-17T13:08:50.118Z,9.34
2019-01-17T13:11:21.685Z,9.27
2019-01-17T13:13:52.941Z,8.85
2019-01-17T13:16:24.025Z,8.78
2019-01-17T13:18:55.217Z,8.51
2019-01-17T13:21:26.542Z,8.36
2019-01-17T13:23:57.700Z,8.11
2019-01-17T13:26:29.310Z,8.25
2019-01-17T13:29:00.688Z,8.22
2019-01-17T13:31:31.925Z,7.89
2019-01-17T13:34:02.963Z,8.02
2019-01-17T13:36:40.141Z,8.23
2019-01-17T13:39:08.514Z,8.49
2019-01-17T13:41:39.678Z,8.78
2019-01-17T13:44:11.732Z,8.85
2019-01-17T13:46:42.936Z,8.77
2019-01-17T13:49:13.973Z,8.38
2019-01-17T13:51:45.191Z,8.32
2019-01-17T13:54:17.179Z,8.49
2019-01-17T13:56:48.838Z,8.36
2019-01-17T13:59:19.865Z,8.32
2019-01-17T14:01:50.920Z,8.11
2019-01-17T14:04:23.402Z,8.01
2019-01-17T14:06:54.577Z,7.95
2019-01-17T14:09:25.684Z,7.79
2019-01-17T14:11:57.049Z,7.76
2019-01-17T14:14:28.359Z,7.76
2019-01-17T14:16:59.454Z,7.71
2019-01-17T14:19:30.542Z,7.91
2019-01-17T14:22:03.434Z,7.92
2019-01-17T14:24:34.802Z,7.79
2019-01-17T14:27:06.030Z,7.78
2019-01-17T14:29:37.217Z,7.80
2019-01-17T14:32:08.407Z,7.87
2019-01-17T14:34:39.485Z,8.00
2019-01-17T14:37:10.459Z,8.02
2019-01-17T14:39:41.946Z,8.00
2019-01-17T14:42:13.824Z,7.94
2019-01-17T14:44:45.750Z,7.89
2019-01-17T14:47:16.735Z,7.86
2019-01-17T14:49:47.865Z,7.61
2019-01-17T14:52:20.035Z,7.43
2019-01-17T14:54:51.784Z,7.38
2019-01-17T14:57:22.946Z,7.25
2019-01-17T14:59:54.144Z,7.14
2019-01-17T15:02:25.458Z,6.90
2019-01-17T15:04:56.547Z,6.79
2019-01-17T15:07:28.349Z,6.84
2019-01-17T15:09:59.337Z,6.74
2019-01-17T15:12:33.193Z,6.68
2019-01-17T15:15:04.961Z,6.63
2019-01-17T15:17:36.284Z,6.51
2019-01-17T15:20:10.911Z,6.42
2019-01-17T15:22:42.593Z,6.30
2019-01-17T15:25:13.945Z,6.27
2019-01-17T15:27:45.739Z,6.21
2019-01-17T15:30:19.367Z,6.15
2019-01-17T15:32:51.094Z,6.15
2019-01-17T15:35:22.989Z,6.08
2019-01-17T15:37:54.475Z,6.05
2019-01-17T15:40:27.862Z,6.03
2019-01-17T15:42:59.403Z,6.00
2019-01-17T15:45:30.940Z,6.00
2019-01-17T15:48:02.427Z,5.98
2019-01-17T15:50:35.043Z,5.93
2019-01-17T15:53:06.201Z,5.96
2019-01-17T15:55:37.645Z,5.93
2019-01-17T15:58:08.990Z,5.96
2019-01-17T16:00:40.164Z,5.93
2019-01-17T16:03:11.337Z,5.93
2019-01-17T16:05:43.211Z,5.93
2019-01-17T16:08:15.045Z,5.91
2019-01-17T16:10:47.467Z,5.86
2019-01-17T16:13:18.739Z,5.90
2019-01-17T16:15:50.204Z,5.90
2019-01-17T16:18:21.798Z,5.90
2019-01-17T16:20:53.107Z,5.85
2019-01-17T16:23:24.556Z,5.85
2019-01-17T16:25:55.899Z,5.81
2019-01-17T16:28:27.307Z,5.81
2019-01-17T16:30:58.531Z,5.79
2019-01-17T16:33:29.967Z,5.84
2019-01-17T16:36:01.046Z,5.87
2019-01-17T16:38:32.765Z,5.86
2019-01-17T16:41:04.270Z,5.89
2019-01-17T16:43:37.206Z,5.86
2019-01-17T16:46:08.517Z,5.80
2019-01-17T16:48:40.227Z,5.79
2019-01-17T16:51:11.426Z,5.86
2019-01-17T16:53:43.044Z,5.84
2019-01-17T16:56:14.402Z,5.89
2019-01-17T16:58:45.564Z,5.90
2019-01-17T17:01:16.861Z,5.92
2019-01-17T17:03:48.096Z,5.91
2019-01-17T17:06:19.090Z,5.88
2019-01-17T17:08:50.754Z,5.91
2019-01-17T17:11:22.613Z,5.96
2019-01-17T17:13:53.769Z,5.93
2019-01-17T17:16:26.206Z,5.92
2019-01-17T17:18:57.384Z,5.92
2019-01-17T17:21:28.590Z,5.93
2019-01-17T17:24:00.151Z,5.93
2019-01-17T17:26:31.400Z,5.90
2019-01-17T17:29:02.507Z,5.88
2019-01-17T17:31:33.677Z,5.85
2019-01-17T17:34:06.155Z,5.82
2019-01-17T17:36:37.425Z,5.78
2019-01-17T17:39:09.986Z,5.73
2019-01-17T17:41:41.070Z,5.70
2019-01-17T17:44:12.462Z,5.67
2019-01-17T17:46:43.909Z,5.68
2019-01-17T17:49:15.138Z,5.64
2019-01-17T17:51:46.268Z,5.63
2019-01-17T17:54:17.342Z,5.56
2019-01-17T17:56:50.138Z,5.54
2019-01-17T17:59:21.188Z,5.50
2019-01-17T18:01:59.022Z,5.47
2019-01-17T18:04:30.261Z,5.40
2019-01-17T18:07:01.335Z,5.37
2019-01-17T18:09:32.589Z,5.33
2019-01-17T18:12:04.244Z,5.32
2019-01-17T18:14:35.736Z,5.28
2019-01-17T18:17:07.336Z,5.19
2019-01-17T18:19:38.512Z,5.25
2019-01-17T18:22:09.675Z,5.28
2019-01-17T18:24:41.099Z,5.25
2019-01-17T18:27:12.313Z,5.18
2019-01-17T18:29:43.466Z,5.18
2019-01-17T18:32:14.852Z,5.17
2019-01-17T18:34:46.080Z,5.18
2019-01-17T18:37:17.466Z,5.18
2019-01-17T18:39:48.559Z,5.17
2019-01-17T18:42:19.638Z,5.19
2019-01-17T18:44:51.176Z,5.19
2019-01-17T18:47:22.223Z,5.23
2019-01-17T18:49:56.750Z,5.29
2019-01-17T18:52:27.902Z,5.37
2019-01-17T18:54:58.964Z,5.39
2019-01-17T18:57:30.174Z,5.44
2019-01-17T19:00:01.433Z,5.44
2019-01-17T19:02:32.507Z,5.42
2019-01-17T19:05:04.041Z,5.41
2019-01-17T19:07:35.541Z,5.37
2019-01-17T19:10:06.941Z,5.30
2019-01-17T19:12:38.140Z,5.31
2019-01-17T19:15:11.021Z,5.27
2019-01-17T19:17:42.615Z,5.32
2019-01-17T19:20:15.153Z,5.31
2019-01-17T19:22:46.562Z,5.34
2019-01-17T19:25:18.030Z,5.37
2019-01-17T19:27:48.998Z,5.39
2019-01-17T19:30:22.126Z,5.38
2019-01-17T19:32:55.017Z,5.42
2019-01-17T19:35:26.440Z,5.50
2019-01-17T19:37:58.112Z,5.55
2019-01-17T19:40:30.743Z,5.65
2019-01-17T19:43:02.670Z,5.72
2019-01-17T19:45:34.091Z,5.80
2019-01-17T19:48:05.887Z,5.89
2019-01-17T19:50:38.710Z,5.96
2019-01-17T19:53:11.246Z,6.03
2019-01-17T19:55:42.800Z,6.10
2019-01-17T19:58:14.138Z,6.17
2019-01-17T20:00:45.217Z,6.22
2019-01-17T20:03:16.403Z,6.23
2019-01-17T20:05:47.779Z,6.27
2019-01-17T20:08:18.789Z,6.33
2019-01-17T20:10:51.099Z,6.36
2019-01-17T20:13:22.437Z,6.42
2019-01-17T20:15:53.542Z,6.47
2019-01-17T20:18:27.152Z,6.46
2019-01-17T20:20:58.306Z,6.47
2019-01-17T20:23:29.429Z,6.49
2019-01-17T20:26:00.641Z,6.49
2019-01-17T20:28:35.716Z,6.50
2019-01-17T20:31:06.106Z,6.50
2019-01-17T20:33:37.380Z,6.50
2019-01-17T20:36:09.135Z,6.52
2019-01-17T20:38:40.412Z,6.55
2019-01-17T20:41:11.779Z,6.53
2019-01-17T20:43:44.164Z,6.51
2019-01-17T20:46:15.461Z,6.50
2019-01-17T20:48:46.777Z,6.50
2019-01-17T20:51:18.259Z,6.51
2019-01-17T20:53:49.513Z,6.55
2019-01-17T20:56:20.561Z,6.51
2019-01-17T20:58:51.920Z,6.55
2019-01-17T21:01:30.568Z,6.56
2019-01-17T21:04:01.801Z,6.56
2019-01-17T21:06:33.071Z,6.56
2019-01-17T21:09:07.313Z,6.56
2019-01-17T21:11:40.037Z,6.60
2019-01-17T21:14:11.402Z,6.61
2019-01-17T21:16:42.910Z,6.66
2019-01-17T21:19:13.892Z,6.65
2019-01-17T21:21:45.206Z,6.68
2019-01-17T21:24:16.462Z,6.71
2019-01-17T21:26:47.611Z,6.72
2019-01-17T21:29:19.744Z,6.77
2019-01-17T21:31:51.050Z,6.79
2019-01-17T21:34:22.238Z,6.72
2019-01-17T21:36:53.916Z,6.71
2019-01-17T21:39:26.540Z,6.62
2019-01-17T21:41:58.003Z,6.71
2019-01-17T21:44:29.631Z,6.73
2019-01-17T21:47:01.002Z,6.67
2019-01-17T21:49:33.724Z,6.70
2019-01-17T21:52:05.152Z,6.73
2019-01-17T21:54:38.482Z,6.76
2019-01-17T21:57:09.802Z,6.85
2019-01-17T21:59:41.192Z,6.92
2019-01-17T22:02:12.673Z,6.97
2019-01-17T22:04:44.227Z,6.99
2019-01-17T22:07:15.423Z,7.03
2019-01-17T22:09:46.822Z,7.04
2019-01-17T22:12:18.192Z,7.05
2019-01-17T22:14:49.802Z,7.07
2019-01-17T22:17:21.257Z,7.07
2019-01-17T22:19:52.704Z,7.08
2019-01-17T22:22:24.339Z,7.07
2019-01-17T22:24:55.751Z,7.06
2019-01-17T22:27:27.216Z,7.02
2019-01-17T22:29:58.637Z,7.01
2019-01-17T22:32:29.794Z,7.01
2019-01-17T22:35:03.044Z,7.00
2019-01-17T22:37:34.460Z,7.00
2019-01-17T22:40:06.715Z,6.98
2019-01-17T22:42:37.927Z,6.99
2019-01-17T22:45:14.877Z,6.99
2019-01-17T22:47:46.537Z,6.98
2019-01-17T22:50:18.476Z,6.94
2019-01-17T22:52:50.528Z,6.91
2019-01-17T22:55:22.231Z,6.92
2019-01-17T22:57:54.334Z,6.87
2019-01-17T23:00:54.337Z,6.85
2019-01-17T23:03:46.002Z,6.83
2019-01-17T23:06:17.351Z,6.78
2019-01-17T23:08:48.786Z,6.71
2019-01-17T23:11:20.160Z,6.71
2019-01-17T23:13:53.528Z,6.73
2019-01-17T23:16:24.952Z,6.69
2019-01-17T23:18:56.450Z,6.65
2019-01-17T23:21:27.826Z,6.61
2019-01-17T23:24:02.232Z,6.60
2019-01-17T23:26:33.395Z,6.62
2019-01-17T23:29:05.384Z,6.61
2019-01-17T23:31:36.582Z,6.60
2019-01-17T23:34:07.649Z,6.56
2019-01-17T23:36:39.934Z,6.53
2019-01-17T23:39:12.040Z,6.51
2019-01-17T23:41:43.393Z,6.43
2019-01-17T23:44:14.705Z,6.45
2019-01-17T23:46:47.232Z,6.47
2019-01-17T23:49:18.354Z,6.47
2019-01-17T23:51:50.332Z,6.40
2019-01-17T23:54:21.708Z,6.37
2019-01-17T23:56:53.104Z,6.36
2019-01-17T23:59:24.384Z,6.34
